createdAt,value
2017-08-29T06:29:32.718Z,22.78
2017-08-29T06:30:04.853Z,22.76
2017-08-29T06:30:36.970Z,22.84
2017-08-29T06:31:09.099Z,22.84
2017-08-29T06:31:41.374Z,22.82
2017-08-29T06:32:13.656Z,22.85
2017-08-29T06:34:05.847Z,22.84
2017-08-29T06:34:39.302Z,22.97
2017-08-29T06:35:14.746Z,22.97
2017-08-29T06:35:49.440Z,22.97
2017-08-29T06:36:22.776Z,23.04
2017-08-29T06:36:56.794Z,22.99
2017-08-29T06:37:30.529Z,23.03
2017-08-29T06:38:05.444Z,23.07
2017-08-29T06:38:39.531Z,23.12
2017-08-29T06:39:14.009Z,23.04
2017-08-29T06:39:49.224Z,23.14
2017-08-29T06:40:23.499Z,23.04
2017-08-29T06:40:58.160Z,23.1
2017-08-29T06:41:31.355Z,23.09
2017-08-29T06:42:05.928Z,23.14
2017-08-29T06:42:40.639Z,23.18
2017-08-29T06:43:14.142Z,23.21
2017-08-29T06:43:48.213Z,23.28
2017-08-29T06:44:22.116Z,23.22
2017-08-29T06:44:55.615Z,23.29
2017-08-29T06:46:48.210Z,23.35
2017-08-29T06:47:22.040Z,23.28
2017-08-29T06:47:55.441Z,23.4
2017-08-29T06:48:28.549Z,23.38
2017-08-29T06:49:01.063Z,23.35
2017-08-29T06:49:33.872Z,23.41
2017-08-29T06:51:26.700Z,23.44
2017-08-29T06:51:59.435Z,23.52
2017-08-29T06:52:33.980Z,23.48
2017-08-29T06:53:08.660Z,23.53
2017-08-29T06:53:42.865Z,23.55
2017-08-29T06:54:17.718Z,23.55
2017-08-29T06:54:53.848Z,23.63
2017-08-29T06:55:28.380Z,23.62
2017-08-29T06:56:03.778Z,23.7
2017-08-29T06:56:38.433Z,23.7
2017-08-29T06:57:11.914Z,23.71
2017-08-29T06:57:46.607Z,23.72
2017-08-29T06:58:21.322Z,23.74
2017-08-29T06:58:56.140Z,23.82
2017-08-29T06:59:29.929Z,23.78
2017-08-29T07:00:03.868Z,23.81
2017-08-29T07:00:38.322Z,23.84
2017-08-29T07:01:12.630Z,23.77
2017-08-29T07:01:48.702Z,23.9
2017-08-29T07:02:23.853Z,23.93
2017-08-29T07:02:58.785Z,23.9
2017-08-29T07:03:32.373Z,23.99
2017-08-29T07:04:05.876Z,23.96
2017-08-29T07:04:39.551Z,23.92
2017-08-29T07:06:32.215Z,23.99
2017-08-29T07:07:05.109Z,24.08
2017-08-29T07:08:56.971Z,24.17
2017-08-29T07:09:30.969Z,24.14
2017-08-29T07:10:06.508Z,24.15
2017-08-29T07:10:39.415Z,24.12
2017-08-29T07:11:12.795Z,24.18
2017-08-29T07:11:46.981Z,24.32
2017-08-29T07:12:20.574Z,24.26
2017-08-29T07:12:53.500Z,24.22
2017-08-29T07:13:27.156Z,24.24
2017-08-29T07:14:00.842Z,24.29
2017-08-29T07:14:33.690Z,24.27
2017-08-29T07:15:06.024Z,24.27
2017-08-29T07:15:39.397Z,24.36
2017-08-29T07:16:11.681Z,24.4
2017-08-29T07:16:43.817Z,24.44
2017-08-29T07:17:16.069Z,24.37
2017-08-29T07:17:48.432Z,24.48
2017-08-29T07:18:21.538Z,24.49
2017-08-29T07:18:55.441Z,24.45
2017-08-29T07:19:28.736Z,24.52
2017-08-29T07:20:01.521Z,24.51
2017-08-29T07:20:34.621Z,24.45
2017-08-29T07:21:07.740Z,24.63
2017-08-29T07:21:40.198Z,24.61
2017-08-29T07:22:13.948Z,24.56
2017-08-29T07:22:46.831Z,24.56
2017-08-29T07:23:19.794Z,24.56
2017-08-29T07:23:52.868Z,24.59
2017-08-29T07:24:26.789Z,24.67
2017-08-29T07:25:00.341Z,24.63
2017-08-29T07:25:33.910Z,24.7
2017-08-29T07:26:07.207Z,24.71
2017-08-29T07:26:40.776Z,24.77
2017-08-29T07:27:14.860Z,24.74
2017-08-29T07:27:48.364Z,24.75
2017-08-29T07:28:20.979Z,24.78
2017-08-29T07:28:57.357Z,24.78
2017-08-29T07:29:30.741Z,24.89
2017-08-29T07:30:04.358Z,24.89
2017-08-29T07:30:37.177Z,24.86
2017-08-29T07:31:11.163Z,24.96
2017-08-29T07:31:43.316Z,24.93
2017-08-29T07:32:15.446Z,24.89
2017-08-29T07:32:47.603Z,24.97
2017-08-29T07:33:19.720Z,25.04
2017-08-29T07:33:51.812Z,25.08
2017-08-29T07:34:23.907Z,25.05
2017-08-29T07:34:56.072Z,25.12
2017-08-29T07:35:28.285Z,25.12
2017-08-29T07:36:00.610Z,25.12
2017-08-29T07:36:32.826Z,25.04
2017-08-29T07:37:05.040Z,25.07
2017-08-29T07:37:37.162Z,25.14
2017-08-29T07:38:09.388Z,25.09
2017-08-29T07:38:41.502Z,25.14
2017-08-29T07:39:13.617Z,25.23
2017-08-29T07:39:45.865Z,25.15
2017-08-29T07:40:17.967Z,25.23
2017-08-29T07:40:50.108Z,25.22
2017-08-29T07:41:22.263Z,25.2
2017-08-29T07:41:54.351Z,25.19
2017-08-29T07:42:26.507Z,25.3
2017-08-29T07:42:58.618Z,25.24
2017-08-29T07:43:30.711Z,25.27
2017-08-29T07:44:02.846Z,25.29
2017-08-29T07:44:35.008Z,25.34
2017-08-29T07:45:07.092Z,25.37
2017-08-29T07:45:39.234Z,25.38
2017-08-29T07:46:11.335Z,25.38
2017-08-29T07:46:43.439Z,25.45
2017-08-29T07:47:15.604Z,25.38
2017-08-29T07:47:47.677Z,25.41
2017-08-29T07:48:19.810Z,25.51
2017-08-29T07:48:51.881Z,25.42
2017-08-29T07:49:23.963Z,25.54
2017-08-29T07:49:56.130Z,25.54
2017-08-29T07:50:28.218Z,25.57
2017-08-29T07:51:00.437Z,25.49
2017-08-29T07:51:32.557Z,25.56
2017-08-29T07:52:04.662Z,25.56
2017-08-29T07:52:36.743Z,25.6
2017-08-29T07:53:08.907Z,25.63
2017-08-29T07:53:41.217Z,25.56
2017-08-29T07:54:13.368Z,25.57
2017-08-29T07:54:45.580Z,25.74
2017-08-29T07:55:17.682Z,25.66
2017-08-29T07:55:49.821Z,25.71
2017-08-29T07:56:22.083Z,25.78
2017-08-29T07:56:54.195Z,25.7
2017-08-29T07:57:26.352Z,25.71
2017-08-29T07:57:58.568Z,25.78
2017-08-29T07:58:30.765Z,25.79
2017-08-29T07:59:02.959Z,25.76
2017-08-29T07:59:35.181Z,25.79
2017-08-29T08:00:07.736Z,25.75
2017-08-29T08:00:42.340Z,25.76
2017-08-29T08:01:15.145Z,25.86
2017-08-29T08:01:49.163Z,25.86
2017-08-29T08:02:23.009Z,25.91
2017-08-29T08:02:57.700Z,25.89
2017-08-29T08:03:31.464Z,25.99
2017-08-29T08:04:06.013Z,25.93
2017-08-29T08:04:39.270Z,25.97
2017-08-29T08:05:12.353Z,25.99
2017-08-29T08:05:45.114Z,26.01
2017-08-29T08:06:18.023Z,26.01
2017-08-29T08:06:51.562Z,26.09
2017-08-29T08:07:24.308Z,25.96
2017-08-29T08:07:57.187Z,26.11
2017-08-29T08:08:29.541Z,26.09
2017-08-29T08:09:02.862Z,26.11
2017-08-29T08:09:35.041Z,26.15
2017-08-29T08:10:07.713Z,26.15
2017-08-29T08:10:41.469Z,26.09
2017-08-29T08:11:14.963Z,26.16
2017-08-29T08:11:48.455Z,26.09
2017-08-29T08:12:21.979Z,26.19
2017-08-29T08:12:55.044Z,26.24
2017-08-29T08:13:30.250Z,26.27
2017-08-29T08:14:03.871Z,26.27
2017-08-29T08:15:57.060Z,26.34
2017-08-29T08:16:29.628Z,26.32
2017-08-29T08:17:02.551Z,26.37
2017-08-29T08:17:35.904Z,26.42
2017-08-29T08:18:08.919Z,26.39
2017-08-29T08:18:41.255Z,26.37
2017-08-29T08:19:13.564Z,26.42
2017-08-29T08:19:47.342Z,26.41
2017-08-29T08:20:19.749Z,26.39
2017-08-29T08:20:51.872Z,26.39
2017-08-29T08:21:23.951Z,26.44
2017-08-29T08:21:56.032Z,26.42
2017-08-29T08:22:28.119Z,26.52
2017-08-29T08:23:00.217Z,26.53
2017-08-29T08:23:32.340Z,26.44
2017-08-29T08:24:04.433Z,26.52
2017-08-29T08:24:36.566Z,26.57
2017-08-29T08:25:08.731Z,26.6
2017-08-29T08:25:40.806Z,26.6
2017-08-29T08:26:12.865Z,26.59
2017-08-29T08:26:45.008Z,26.57
2017-08-29T08:27:17.151Z,26.61
2017-08-29T08:27:49.302Z,26.63
2017-08-29T08:28:21.453Z,26.54
2017-08-29T08:28:53.578Z,26.68
2017-08-29T08:29:25.720Z,26.72
2017-08-29T08:29:57.971Z,26.6
2017-08-29T08:30:30.199Z,26.68
2017-08-29T08:31:02.356Z,26.78
2017-08-29T08:31:34.488Z,26.81
2017-08-29T08:32:06.595Z,26.81
2017-08-29T08:32:38.743Z,26.84
2017-08-29T08:33:10.959Z,26.91
2017-08-29T08:33:43.100Z,26.86
2017-08-29T08:34:15.210Z,26.84
2017-08-29T08:34:47.387Z,26.82
2017-08-29T08:35:19.466Z,26.86
2017-08-29T08:35:51.621Z,26.97
2017-08-29T08:36:24.128Z,27
2017-08-29T08:36:59.534Z,26.96
2017-08-29T08:37:31.944Z,26.94
2017-08-29T08:38:04.875Z,27
2017-08-29T08:38:37.500Z,26.99
2017-08-29T08:39:09.812Z,26.99
2017-08-29T08:39:42.329Z,26.97
2017-08-29T08:40:14.616Z,27.05
2017-08-29T08:40:46.940Z,27.01
2017-08-29T08:41:19.147Z,27.01
2017-08-29T08:41:51.468Z,27.08
2017-08-29T08:42:23.684Z,27.19
2017-08-29T08:42:56.424Z,27.11
2017-08-29T08:43:29.076Z,27.18
2017-08-29T08:44:01.275Z,27.15
2017-08-29T08:44:33.492Z,27.21
2017-08-29T08:46:25.571Z,27.31
2017-08-29T08:46:59.397Z,27.34
2017-08-29T08:47:32.896Z,27.28
2017-08-29T08:48:05.093Z,27.33
2017-08-29T08:48:37.115Z,27.3
2017-08-29T08:49:09.334Z,27.3
2017-08-29T08:51:00.850Z,27.45
2017-08-29T08:51:33.063Z,27.46
2017-08-29T08:52:05.166Z,27.38
2017-08-29T08:52:37.272Z,27.46
2017-08-29T08:53:09.371Z,27.49
2017-08-29T08:55:00.747Z,27.49
2017-08-29T08:55:32.864Z,27.46
2017-08-29T08:56:04.942Z,27.57
2017-08-29T08:56:37.089Z,27.57
2017-08-29T08:57:09.210Z,27.57
2017-08-29T08:57:41.290Z,27.64
2017-08-29T08:58:13.418Z,27.62
2017-08-29T08:58:45.550Z,27.65
2017-08-29T08:59:17.671Z,27.57
2017-08-29T08:59:49.763Z,27.62
2017-08-29T09:00:21.864Z,27.65
2017-08-29T09:00:53.941Z,27.76
2017-08-29T09:01:26.013Z,27.68
2017-08-29T09:01:59.454Z,27.72
2017-08-29T09:02:34.985Z,27.71
2017-08-29T09:03:07.066Z,27.8
2017-08-29T09:03:39.145Z,27.69
2017-08-29T09:05:30.766Z,27.89
2017-08-29T09:06:02.905Z,27.87
2017-08-29T09:06:34.996Z,27.89
2017-08-29T09:07:07.117Z,27.89
2017-08-29T09:07:39.203Z,27.9
2017-08-29T09:08:11.336Z,27.94
2017-08-29T09:08:43.480Z,27.93
2017-08-29T09:09:15.648Z,27.96
2017-08-29T09:09:47.725Z,27.99
2017-08-29T09:10:19.865Z,28.06
2017-08-29T09:10:51.953Z,28.02
2017-08-29T09:11:24.128Z,27.99
2017-08-29T09:11:56.249Z,27.96
2017-08-29T09:12:28.316Z,28.05
2017-08-29T09:13:00.469Z,28.12
2017-08-29T09:13:32.696Z,28.05
2017-08-29T09:14:04.787Z,28.08
2017-08-29T09:14:36.902Z,28.03
2017-08-29T09:15:09.043Z,28.17
2017-08-29T09:15:41.157Z,28.16
2017-08-29T09:16:13.344Z,28.12
2017-08-29T09:16:45.530Z,28.27
2017-08-29T09:17:17.670Z,28.28
2017-08-29T09:17:49.856Z,28.28
2017-08-29T09:18:22.010Z,28.24
2017-08-29T09:18:54.103Z,28.27
2017-08-29T09:19:26.231Z,28.33
2017-08-29T09:19:58.384Z,28.28
2017-08-29T09:20:30.518Z,28.27
2017-08-29T09:21:02.643Z,28.28
2017-08-29T09:21:34.868Z,28.3
2017-08-29T09:22:06.976Z,28.39
2017-08-29T09:22:39.105Z,28.39
2017-08-29T09:23:11.258Z,28.43
2017-08-29T09:23:43.336Z,28.46
2017-08-29T09:24:15.417Z,28.46
2017-08-29T09:24:47.535Z,28.45
2017-08-29T09:25:19.672Z,28.51
2017-08-29T09:25:51.810Z,28.51
2017-08-29T09:26:23.940Z,28.53
2017-08-29T09:26:56.080Z,28.55
2017-08-29T09:27:28.166Z,28.57
2017-08-29T09:28:00.279Z,28.48
2017-08-29T09:28:32.420Z,28.58
2017-08-29T09:29:04.554Z,28.54
2017-08-29T09:29:36.645Z,28.61
2017-08-29T09:30:08.738Z,28.7
2017-08-29T09:30:40.837Z,28.7
2017-08-29T09:31:12.964Z,28.72
2017-08-29T09:31:45.097Z,28.64
2017-08-29T09:32:17.205Z,28.78
2017-08-29T09:32:49.300Z,28.75
2017-08-29T09:33:21.457Z,28.7
2017-08-29T09:33:53.530Z,28.8
2017-08-29T09:34:25.664Z,28.8
2017-08-29T09:34:57.825Z,28.85
2017-08-29T09:35:29.963Z,28.95
2017-08-29T09:36:02.161Z,28.88
2017-08-29T09:36:34.307Z,28.95
2017-08-29T09:37:06.439Z,28.86
2017-08-29T09:37:38.644Z,28.85
2017-08-29T09:38:10.796Z,28.91
2017-08-29T09:38:42.854Z,28.83
2017-08-29T09:39:14.943Z,28.98
2017-08-29T09:39:47.091Z,28.95
2017-08-29T09:40:19.228Z,29.02
2017-08-29T09:40:51.931Z,28.94
2017-08-29T09:41:25.170Z,28.92
2017-08-29T09:41:57.328Z,28.94
2017-08-29T09:42:29.474Z,29.01
2017-08-29T09:43:01.636Z,29.02
2017-08-29T09:43:33.792Z,29.13
2017-08-29T09:44:06.008Z,29.08
2017-08-29T09:44:38.105Z,29.02
2017-08-29T09:45:10.203Z,29.14
2017-08-29T09:45:42.293Z,29.17
2017-08-29T09:46:14.402Z,29.15
2017-08-29T09:46:46.497Z,29.18
2017-08-29T09:47:18.664Z,29.13
2017-08-29T09:47:50.795Z,29.18
2017-08-29T09:48:22.918Z,29.21
2017-08-29T09:48:55.012Z,29.2
2017-08-29T09:49:27.145Z,29.29
2017-08-29T09:49:59.239Z,29.29
2017-08-29T09:50:31.320Z,29.28
2017-08-29T09:51:03.542Z,29.24
2017-08-29T09:51:35.638Z,29.36
2017-08-29T09:52:07.767Z,29.39
2017-08-29T09:52:40.030Z,29.33
2017-08-29T09:53:13.162Z,29.43
2017-08-29T09:53:45.323Z,29.38
2017-08-29T09:54:17.472Z,29.42
2017-08-29T09:54:49.623Z,29.4
2017-08-29T09:55:21.864Z,29.38
2017-08-29T09:55:54.053Z,29.5
2017-08-29T09:56:26.157Z,29.45
2017-08-29T09:56:58.306Z,29.51
2017-08-29T09:57:30.542Z,29.58
2017-08-29T09:58:02.816Z,29.6
2017-08-29T09:58:35.020Z,29.58
2017-08-29T09:59:07.216Z,29.55
2017-08-29T09:59:39.387Z,29.51
2017-08-29T10:00:11.504Z,29.57
2017-08-29T10:00:43.606Z,29.61
2017-08-29T10:01:15.733Z,29.57
2017-08-29T10:01:48.012Z,29.61
2017-08-29T10:02:20.267Z,29.66
2017-08-29T10:02:52.426Z,29.61
2017-08-29T10:03:24.671Z,29.6
2017-08-29T10:03:56.906Z,29.69
2017-08-29T10:04:29.065Z,29.7
2017-08-29T10:05:01.963Z,29.67
2017-08-29T10:05:34.813Z,29.75
2017-08-29T10:06:07.840Z,29.84
2017-08-29T10:06:40.105Z,29.85
2017-08-29T10:07:12.266Z,29.82
2017-08-29T10:07:44.415Z,29.81
2017-08-29T10:08:16.529Z,29.89
2017-08-29T10:08:48.640Z,29.95
2017-08-29T10:09:20.756Z,29.87
2017-08-29T10:09:52.907Z,29.85
2017-08-29T10:10:25.042Z,29.94
2017-08-29T10:10:57.166Z,30.02
2017-08-29T10:11:29.418Z,29.89
2017-08-29T10:12:01.604Z,30.03
2017-08-29T10:12:33.831Z,30.04
2017-08-29T10:13:05.976Z,30.04
2017-08-29T10:13:38.117Z,30.13
2017-08-29T10:14:10.361Z,30.03
2017-08-29T10:14:42.541Z,30.09
2017-08-29T10:15:14.804Z,30.11
2017-08-29T10:15:47.022Z,30.16
2017-08-29T10:16:19.125Z,30.1
2017-08-29T10:16:51.319Z,30.14
2017-08-29T10:17:23.439Z,30.24
2017-08-29T10:17:55.566Z,30.16
2017-08-29T10:18:27.739Z,30.22
2017-08-29T10:18:59.901Z,30.16
2017-08-29T10:19:32.090Z,30.35
2017-08-29T10:20:04.297Z,30.29
2017-08-29T10:20:36.550Z,30.35
2017-08-29T10:21:08.739Z,30.4
2017-08-29T10:21:40.984Z,30.4
2017-08-29T10:22:13.217Z,30.42
2017-08-29T10:22:45.525Z,30.4
2017-08-29T10:23:18.345Z,30.51
2017-08-29T10:23:50.415Z,30.48
2017-08-29T10:24:22.516Z,30.45
2017-08-29T10:24:54.658Z,30.57
2017-08-29T10:25:26.794Z,30.51
2017-08-29T10:25:58.910Z,30.56
2017-08-29T10:26:31.027Z,30.63
2017-08-29T10:27:03.178Z,30.66
2017-08-29T10:27:35.310Z,30.71
2017-08-29T10:28:07.443Z,30.66
2017-08-29T10:28:39.577Z,30.7
2017-08-29T10:29:11.679Z,30.77
2017-08-29T10:29:43.890Z,30.75
2017-08-29T10:30:16.004Z,30.75
2017-08-29T10:30:48.163Z,30.78
2017-08-29T10:31:20.414Z,30.86
2017-08-29T10:31:52.535Z,30.89
2017-08-29T10:32:24.632Z,30.88
2017-08-29T10:32:56.792Z,30.91
2017-08-29T10:33:29.249Z,30.93
2017-08-29T10:34:01.465Z,30.85
2017-08-29T10:34:33.596Z,30.85
2017-08-29T10:35:05.805Z,30.93
2017-08-29T10:35:37.926Z,31.03
2017-08-29T10:36:10.064Z,30.97
2017-08-29T10:36:42.146Z,31.03
2017-08-29T10:37:14.282Z,31.03
2017-08-29T10:37:46.405Z,31.01
2017-08-29T10:38:18.609Z,31.13
2017-08-29T10:38:50.705Z,31.13
2017-08-29T10:39:22.862Z,31.1
2017-08-29T10:39:54.941Z,31.16
2017-08-29T10:40:27.026Z,31.15
2017-08-29T10:40:59.175Z,31.26
2017-08-29T10:41:31.294Z,31.28
2017-08-29T10:42:03.396Z,31.25
2017-08-29T10:42:35.519Z,31.34
2017-08-29T10:43:07.636Z,31.34
2017-08-29T10:43:39.756Z,31.38
2017-08-29T10:44:11.853Z,31.37
2017-08-29T10:44:44.070Z,31.4
2017-08-29T10:45:16.234Z,31.4
2017-08-29T10:45:48.311Z,31.4
2017-08-29T10:46:20.381Z,31.43
2017-08-29T10:46:52.525Z,31.49
2017-08-29T10:47:24.633Z,31.52
2017-08-29T10:47:56.697Z,31.55
2017-08-29T10:48:28.788Z,31.58
2017-08-29T10:49:00.917Z,31.65
2017-08-29T10:49:33.050Z,31.63
2017-08-29T10:50:05.226Z,31.7
2017-08-29T10:50:37.326Z,31.77
2017-08-29T10:51:09.419Z,31.71
2017-08-29T10:51:41.531Z,31.77
2017-08-29T10:52:13.702Z,31.77
2017-08-29T10:52:45.805Z,31.81
2017-08-29T10:53:17.905Z,31.9
2017-08-29T10:53:50.036Z,31.88
2017-08-29T10:54:22.156Z,31.97
2017-08-29T10:54:54.251Z,31.95
2017-08-29T10:55:26.376Z,32
2017-08-29T10:55:58.467Z,32.01
2017-08-29T10:56:30.549Z,32.03
2017-08-29T10:57:02.648Z,31.98
2017-08-29T10:57:34.729Z,32.01
2017-08-29T10:58:06.857Z,32.09
2017-08-29T10:58:38.979Z,32.05
2017-08-29T10:59:11.122Z,32.1
2017-08-29T10:59:43.216Z,32.19
2017-08-29T11:00:15.349Z,32.16
2017-08-29T11:00:47.572Z,32.24
2017-08-29T11:01:19.660Z,32.3
2017-08-29T11:01:51.754Z,32.24
2017-08-29T11:02:23.881Z,32.27
2017-08-29T11:02:55.992Z,32.32
2017-08-29T11:03:28.225Z,32.3
2017-08-29T11:04:00.412Z,32.43
2017-08-29T11:04:32.553Z,32.37
2017-08-29T11:05:04.876Z,32.42
2017-08-29T11:05:37.241Z,32.52
2017-08-29T11:06:09.384Z,32.53
2017-08-29T11:06:41.498Z,32.53
2017-08-29T11:07:13.569Z,32.61
2017-08-29T11:07:45.883Z,32.56
2017-08-29T11:08:17.960Z,32.68
2017-08-29T11:08:50.191Z,32.68
2017-08-29T11:09:22.339Z,32.69
2017-08-29T11:09:54.625Z,32.74
2017-08-29T11:10:27.485Z,32.8
2017-08-29T11:10:59.656Z,32.8
2017-08-29T11:11:31.877Z,32.81
2017-08-29T11:12:04.049Z,32.76
2017-08-29T11:12:36.244Z,32.9
2017-08-29T11:13:08.369Z,32.87
2017-08-29T11:13:40.448Z,32.89
2017-08-29T11:14:12.535Z,33.02
2017-08-29T11:14:44.663Z,33.06
2017-08-29T11:15:16.812Z,32.99
2017-08-29T11:15:48.943Z,33.05
2017-08-29T11:16:21.043Z,33.12
2017-08-29T11:16:53.162Z,33.11
2017-08-29T11:17:25.278Z,33.21
2017-08-29T11:17:57.422Z,33.18
2017-08-29T11:18:29.586Z,33.24
2017-08-29T11:19:01.749Z,33.28
2017-08-29T11:19:33.833Z,33.32
2017-08-29T11:20:05.967Z,33.31
2017-08-29T11:20:38.091Z,33.43
2017-08-29T11:21:10.258Z,33.43
2017-08-29T11:21:42.346Z,33.39
2017-08-29T11:22:14.465Z,33.5
2017-08-29T11:22:46.572Z,33.52
2017-08-29T11:23:18.764Z,33.53
2017-08-29T11:23:50.942Z,33.52
2017-08-29T11:24:23.055Z,33.59
2017-08-29T11:24:55.324Z,33.56
2017-08-29T11:25:27.427Z,33.69
2017-08-29T11:25:59.576Z,33.74
2017-08-29T11:26:31.803Z,33.74
2017-08-29T11:27:04.001Z,33.81
2017-08-29T11:27:36.125Z,33.78
2017-08-29T11:28:08.296Z,33.87
2017-08-29T11:28:40.447Z,33.85
2017-08-29T11:29:12.661Z,33.9
2017-08-29T11:29:44.773Z,33.97
2017-08-29T11:30:16.925Z,33.92
2017-08-29T11:30:49.114Z,34.03
2017-08-29T11:31:21.255Z,34
